TimePST,TemperatureF,Dew PointF,Humidity,Sea Level PressureIn,VisibilityMPH,Wind Direction,Wind SpeedMPH,Gust SpeedMPH,PrecipitationIn,Events,Conditions,WindDirDegrees,DateUTC
12:54 AM,35.1,34.0,96,30.01,10.0,South,4.6,-,N/A,,Partly Cloudy,170,2013-03-07 08:54:00
1:54 AM,35.1,33.1,92,30.01,10.0,SSE,4.6,-,N/A,,Clear,160,2013-03-07 09:54:00
2:54 AM,35.1,33.1,92,30.01,10.0,South,4.6,-,N/A,,Clear,170,2013-03-07 10:54:00
3:54 AM,35.1,33.1,92,30.01,10.0,SSW,4.6,-,N/A,,Clear,210,2013-03-07 11:54:00
4:54 AM,32.0,30.9,96,30.03,10.0,SW,5.8,-,N/A,,Clear,230,2013-03-07 12:54:00
5:03 AM,30.2,28.4,93,30.02,2.5,SSW,4.6,-,N/A,,Scattered Clouds,210,2013-03-07 13:03:00
5:06 AM,30.2,28.4,93,30.02,1.2,SSW,6.9,-,N/A,,Scattered Clouds,210,2013-03-07 13:06:00
5:10 AM,30.2,28.4,93,30.02,0.8,SSW,4.6,-,N/A,,Mist,200,2013-03-07 13:10:00
5:38 AM,30.2,28.4,93,30.03,1.5,Calm,Calm,-,N/A,,Mostly Cloudy,0,2013-03-07 13:38:00
5:49 AM,30.2,28.4,93,30.03,6.0,Calm,Calm,-,N/A,Fog,Scattered Clouds,0,2013-03-07 13:49:00
5:54 AM,30.2,28.4,93,30.04,6.0,Calm,Calm,-,N/A,Fog,Scattered Clouds,0,2013-03-07 13:54:00
6:21 AM,28.4,26.6,93,30.04,0.5,WSW,3.5,-,N/A,Fog,Light Freezing Fog,250,2013-03-07 14:21:00
6:32 AM,30.2,28.4,93,30.05,0.2,West,3.5,-,N/A,Fog,Light Freezing Fog,260,2013-03-07 14:32:00
6:54 AM,28.4,26.6,93,30.06,0.1,SSW,4.6,-,N/A,Fog,Light Freezing Fog,200,2013-03-07 14:54:00
7:06 AM,28.4,26.6,93,30.04,0.5,South,4.6,-,N/A,Fog,Light Freezing Fog,190,2013-03-07 15:06:00
7:17 AM,28.4,28.4,100,30.04,1.0,SSW,4.6,-,N/A,Fog,Scattered Clouds,210,2013-03-07 15:17:00
7:33 AM,30.2,30.2,100,30.05,10.0,SSW,3.5,-,N/A,Fog,Patches of Fog,210,2013-03-07 15:33:00
7:54 AM,32.0,32.0,100,30.06,10.0,Calm,Calm,-,N/A,Fog,Patches of Fog,0,2013-03-07 15:54:00
8:54 AM,37.4,35.6,93,30.06,10.0,Calm,Calm,-,N/A,Fog,Patches of Fog,0,2013-03-07 16:54:00
9:54 AM,43.0,37.9,82,30.06,10.0,Variable,3.5,-,N/A,,Partly Cloudy,0,2013-03-07 17:54:00
10:54 AM,48.0,39.0,71,30.05,10.0,North,3.5,-,N/A,,Partly Cloudy,360,2013-03-07 18:54:00
11:54 AM,50.0,39.0,66,30.04,10.0,North,5.8,-,N/A,,Scattered Clouds,360,2013-03-07 19:54:00
12:54 PM,53.1,39.0,59,30.02,10.0,North,8.1,-,N/A,,Scattered Clouds,350,2013-03-07 20:54:00
1:54 PM,55.0,36.0,49,30.00,10.0,Variable,5.8,-,N/A,,Scattered Clouds,0,2013-03-07 21:54:00
2:54 PM,55.9,33.1,42,30.00,10.0,NNW,4.6,-,N/A,,Partly Cloudy,330,2013-03-07 22:54:00
3:54 PM,55.9,33.1,42,29.99,10.0,NNE,6.9,-,N/A,,Partly Cloudy,20,2013-03-07 23:54:00
4:54 PM,54.0,34.0,47,29.99,10.0,NNE,9.2,-,N/A,,Scattered Clouds,30,2013-03-08 00:54:00
5:54 PM,48.9,39.9,71,30.01,10.0,North,9.2,-,N/A,,Mostly Cloudy,10,2013-03-08 01:54:00
6:54 PM,46.9,39.0,74,30.04,10.0,SE,5.8,-,N/A,,Mostly Cloudy,140,2013-03-08 02:54:00
7:54 PM,46.0,37.0,71,30.04,10.0,ESE,8.1,-,N/A,,Mostly Cloudy,110,2013-03-08 03:54:00
8:54 PM,43.0,37.0,80,30.04,10.0,SSE,4.6,-,N/A,,Partly Cloudy,150,2013-03-08 04:54:00
9:54 PM,43.0,37.0,80,30.04,10.0,South,4.6,-,N/A,,Mostly Cloudy,190,2013-03-08 05:54:00
10:54 PM,39.9,36.0,86,30.03,10.0,WSW,4.6,-,N/A,,Clear,240,2013-03-08 06:54:00
11:54 PM,37.0,35.1,93,30.03,10.0,Calm,Calm,-,N/A,,Clear,0,2013-03-08 07:54:00